Řízení letového provozu České republiky
Letiste: LKCV Aktualizace: 19.02.2018 11:06:03  UTC
 METAR LKCV 19.02. 11:00 ...
METAR LKCV 191100Z VRB02KT CAVOK 01/M06 Q1022 NOSIG=
 TAF LKCV 19.02. 05:00 ...
TAF LKCV 190500Z 1906/2006 12005KT CAVOK      TEMPO 1911/1917 14010KT BKN040      BECMG 2000/2002 VRB02KT BKN030=